x

La Perouse Bank (46206) Wave Buoy

6:00 - Fri 2nd Dec 2016 All times are PST. -8 hours from GMT.

  • Sig Wave height 13.1ft
  • Peak Period 12s
  • Wind
    20mph, 27mph gusts
  • Sea Temp 57°f
  • Air Temp 52°f
  • Sea Pressure 1018.8mb
  • La Perouse Bank
  • La Perouse Bank

More Historic Weather Station data

Upgrade to MSW Pro to gain access to the past 30 days of data for over 8000 Wavebouys and Weather Stations around the globe.

Join Pro

Comparision Forecast

View Surf forecast
   
ven. 12/02 6:00 13ft 12s 20 27 mph 1018.8mb 57f 52f
5:00 12ft 11s 22 27 mph 1018.4mb 57f 52f
4:00 12.5ft 12s 18 20 mph 1018.3mb 57f 52f
3:00 12.5ft 14s 20 27 mph 1017.8mb 57f 53f
2:00 13.5ft 12s 25 31 mph 1017.4mb 58f 52f
1:00 11ft 12s 22 29 mph 1017.4mb 58f 53f
11:00 13ft 13s 22 27 mph 1016.7mb 57f 54f
10:00 11.5ft 12s 20 27 mph 1016.5mb 58f 54f
9:00 12ft 13s 25 29 mph 1016.2mb 57f 53f
8:00 10.5ft 13s 27 31 mph 1016.4mb 57f 53f
7:00  -   -  22
mph
- - 53f
6:00 11ft 12s 22 27 mph 1018.1mb 57f 53f
5:00 12ft 11s 22 27 mph 1019.1mb 57f 52f
4:00 11.5ft 12s 25 31 mph 1019mb 56f 53f
2:00 10.5ft 12s 22 29 mph 1020.4mb 57f 53f
1:00 10.5ft 12s 22 25 mph 1021.2mb 56f 53f
12:00 11ft 12s 20 22 mph 1021.6mb 56f 53f
jeu. 12/01 11:00 10.5ft 12s 16 18 mph 1021.9mb 56f 53f
10:00 11ft 11s 16 18 mph 1022.2mb 56f 53f
9:00 10.5ft 11s 16 18 mph 1022mb 56f 53f
8:00 9ft 12s 7 9 mph 1022.4mb 56f 52f
7:00 9ft 11s 9 11 mph 1022.4mb 56f 52f
6:00 9ft 12s 13 16 mph 1022.4mb 56f 53f
5:00 8ft 12s 16 18 mph 1022.2mb 56f 52f
4:00 8ft 12s 18 25 mph 1022.1mb 56f 51f
3:00 8ft 13s 13 16 mph 1022.4mb 56f 50f
2:00 8ft 12s 11 16 mph 1022.4mb 56f 50f
1:00 9ft 13s 9 11 mph 1022.5mb 56f 50f
12:00 9ft 12s 11 16 mph 1022.8mb 56f 51f
11:00 9ft 12s 7 13 mph 1023.3mb 56f 49f
9:00 11.5ft 12s 11 13 mph 1022.9mb 56f 48f
8:00 12ft 11s 7 11 mph 1022.8mb 56f 48f
7:00 12ft 13s 4 9 mph 1022.7mb 56f 48f
6:00 12ft 13s 4 7 mph 1022.9mb 56f 47f
5:00 11ft 12s 9 13 mph 1022.6mb 56f 46f
4:00 11ft 14s 4 7 mph 1022.1mb 56f 48f
3:00 11.5ft 14s 11 13 mph 1022.5mb 56f 47f
2:00 11.5ft 13s 11 16 mph 1022.2mb 56f 49f
1:00 13ft 12s 11 20 mph 1021.9mb 56f 48f
12:00 13.5ft 14s 16 20 mph 1021.1mb 56f 49f
mer. 11/30 11:00 13ft 13s 13 20 mph 1021.2mb 56f 49f
10:00 15ft 14s 20 25 mph 1020.5mb 56f 50f
9:00 16.5ft 14s 25 31 mph 1020.3mb 57f 49f
8:00 16ft 14s 22 27 mph 1020mb 57f 50f
7:00 18.5ft 12s 22 27 mph 1019.6mb 57f 50f
6:00 18ft 14s 22 27 mph 1019.1mb 57f 51f
5:00 17.5ft 14s 20 27 mph 1018.7mb 57f 50f
2:00 19ft 12s 27 31 mph 1016.7mb 57f 51f
1:00 18.5ft 12s 29 36 mph 1016mb 57f 52f
12:00 17.5ft 13s 31 45 mph 1015.3mb 58f 51f
11:00 18ft 12s 29 36 mph 1014.9mb 58f 51f
10:00 17ft 12s 31 40 mph 1013.8mb 58f 51f
9:00 15.5ft 12s 36 45 mph 1012.2mb 59f 51f
8:00 18ft 12s 36 45 mph 1010.6mb 58f 52f
7:00 17.5ft 12s 38
mph
1008.9mb 58f 52f
6:00 16.5ft 11s 34 40 mph 1007.6mb 58f 51f
5:00  -   -  31
mph
- - -
4:00 14ft 10s 16 22 mph 1003.9mb 58f 50f
3:00  -   -  36
mph
- - -
2:00 14ft 10s 18 29 mph 1002mb 58f 52f
1:00 14.5ft 10s 16 22 mph 1001.1mb 58f 51f
12:00 17.5ft 9s 20 27 mph 1001.5mb 58f 53f
mar. 11/29 11:00 16.5ft 9s 38
mph
1001.1mb 58f 51f
10:00 17ft 8s 36 43 mph 1002.4mb 58f 51f
9:00  -   -  38
mph
- - 51f
7:00 13ft 8s 36 45 mph 1006.5mb 57f 51f
6:00 12ft 7s 36 47 mph 1007.3mb 57f 51f
5:00 11ft 6s 36 45 mph 1008.6mb 57f 52f
4:00 10.5ft 6s 34 43 mph 1010.3mb 57f 52f
3:00 10ft 15s 31 36 mph 1012mb 57f 52f
2:00 9ft 11s 29 36 mph 1012.8mb 57f 52f
1:00 9ft 12s 27 31 mph 1014.6mb 57f 53f
12:00 9.5ft 15s 25 29 mph 1016mb 57f 53f
11:00 9ft 16s 22 27 mph 1017.2mb 56f 52f
10:00 9ft 16s 20 25 mph 1018mb 56f 52f
9:00 10ft 15s 16 20 mph 1018.6mb 56f 52f
8:00 11ft 16s 13 16 mph 1019.2mb 56f 52f
7:00  -   -  18
mph
- - 50f
6:00 11ft 14s 16 22 mph 1019mb 56f 50f
5:00 14ft 13s 7 9 mph 1019.3mb 56f 51f